HomeShort term forecast

Short term forecast

Graphical weather forecast for the next 48 hours for Montreal:
Short term forecast
This weather forecast is automatically refreshed every 3 hours.

Hourly Experimental Forecast for the next 48 hours

Overall summary: Partly cloudy later this evening.

 Date & Hour   Temp   Feel   Baro   Hum   Speed & Bearing   Wind Gust   Precip.%   Precip.   Visibility   Cloud cover   Conditions 
 21/01/2019 - 18:00  -17.0°C  -27.2°C  1021.7 hPa  53%  22.4 km/h   40.3 km/h  0%  --  16.1km  70%  Mostly Cloudy 
 21/01/2019 - 19:00  -17.2°C  -27.1°C  1023.1 hPa  53%  20.7 km/h   38.1 km/h  0%  --  16.1km  50%  Partly Cloudy 
 21/01/2019 - 20:00  -17.5°C  -27.1°C  1024.2 hPa  53%  19.2 km/h   36.0 km/h  0%  --  16.1km  28%  Partly Cloudy 
 21/01/2019 - 21:00  -17.9°C  -27.4°C  1025.5 hPa  53%  18.4 km/h   33.8 km/h  0%  --  16.1km  10%  Clear 
 21/01/2019 - 22:00  -18.3°C  -27.9°C  1026.6 hPa  53%  18.4 km/h   32.2 km/h  0%  --  16.1km  0%  Clear 
 21/01/2019 - 23:00  -18.6°C  -28.1°C  1027.8 hPa  53%  17.7 km/h   31.4 km/h  0%  --  16.1km  0%  Clear 
 22/01/2019 - 00:00  -18.8°C  -28.4°C  1028.9 hPa  53%  17.9 km/h   31.5 km/h  0%  --  16.1km  0%  Clear 
 22/01/2019 - 01:00  -19.0°C  -28.7°C  1030.0 hPa  53%  18.1 km/h   31.2 km/h  0%  --  16.1km  0%  Clear 
 22/01/2019 - 02:00  -19.2°C  -28.9°C  1031.1 hPa  53%  17.9 km/h   30.4 km/h  0%  --  16.1km  0%  Clear 
 22/01/2019 - 03:00  -19.4°C  -29.0°C  1032.1 hPa  54%  17.3 km/h   29.3 km/h  0%  --  16.1km  0%  Clear 
 22/01/2019 - 04:00  -19.7°C  -29.4°C  1033.0 hPa  54%  17.2 km/h   28.1 km/h  0%  --  16.1km  0%  Clear 
 22/01/2019 - 05:00  -20.2°C  -29.9°C  1033.8 hPa  55%  16.8 km/h   28.2 km/h  0%  --  16.1km  0%  Clear 
 22/01/2019 - 06:00  -20.8°C  -30.5°C  1034.8 hPa  57%  16.6 km/h   30.0 km/h  0%  --  16.1km  0%  Clear 
 22/01/2019 - 07:00  -21.0°C  -30.8°C  1035.7 hPa  58%  16.6 km/h   30.0 km/h  0%  --  16.1km  0%  Clear 
 22/01/2019 - 08:00  -20.1°C  -30.1°C  1036.7 hPa  61%  18.2 km/h   31.0 km/h  0%  --  16.1km  0%  Clear 
 22/01/2019 - 09:00  -19.5°C  -29.5°C  1037.4 hPa  63%  18.6 km/h   31.1 km/h  0%  --  16.1km  0%  Clear 
 22/01/2019 - 10:00  -18.6°C  -28.5°C  1037.7 hPa  64%  18.9 km/h   30.7 km/h  0%  --  16.1km  0%  Clear 
 22/01/2019 - 11:00  -17.3°C  -26.9°C  1037.5 hPa  64%  19.1 km/h   29.2 km/h  0%  --  16.1km  2%  Clear 
 22/01/2019 - 12:00  -15.8°C  -25.0°C  1037.0 hPa  64%  19.1 km/h   27.2 km/h  0%  --  16.1km  5%  Clear 
 22/01/2019 - 13:00  -14.5°C  -23.1°C  1036.5 hPa  63%  18.5 km/h   25.4 km/h  0%  --  16.1km  10%  Clear 
 22/01/2019 - 14:00  -13.4°C  -21.3°C  1036.1 hPa  61%  16.8 km/h   24.5 km/h  0%  --  16.1km  24%  Clear 
 22/01/2019 - 15:00  -12.5°C  -19.6°C  1035.7 hPa  59%  14.5 km/h   23.8 km/h  0%  --  16.1km  42%  Partly Cloudy 
 22/01/2019 - 16:00  -12.0°C  -18.4°C  1035.4 hPa  58%  12.2 km/h   22.0 km/h  2%  0.01 mm/h  16.1km  56%  Partly Cloudy 
 22/01/2019 - 17:00  -12.2°C  -17.8°C  1035.3 hPa  60%  9.8 km/h   17.2 km/h  2%  0.01 mm/h  16.1km  61%  Mostly Cloudy 
 22/01/2019 - 18:00  -13.5°C  -18.2°C  1035.3 hPa  66%  7.3 km/h   11.3 km/h  2%  0.01 mm/h  16.1km  66%  Mostly Cloudy 
 22/01/2019 - 19:00  -14.0°C  -18.1°C  1034.8 hPa  69%  5.9 km/h   8.1 km/h  2%  0.01 mm/h  16.1km  71%  Mostly Cloudy 
 22/01/2019 - 20:00  -14.2°C  -18.5°C  1033.8 hPa  70%  6.3 km/h   9.7 km/h  1%  0.01 mm/h  16.1km  74%  Mostly Cloudy 
 22/01/2019 - 21:00  -14.1°C  -19.1°C  1032.6 hPa  70%  7.7 km/h   14.1 km/h  2%  0.02 mm/h  16.1km  77%  Mostly Cloudy 
 22/01/2019 - 22:00  -13.4°C  -19.0°C  1031.1 hPa  68%  9.1 km/h   18.6 km/h  1%  0.02 mm/h  16.1km  81%  Mostly Cloudy 
 22/01/2019 - 23:00  -11.1°C  -16.7°C  1029.7 hPa  63%  10.4 km/h   22.9 km/h  1%  0.01 mm/h  16.1km  86%  Mostly Cloudy 
 23/01/2019 - 00:00  -9.5°C  -15.1°C  1028.2 hPa  63%  11.5 km/h   27.2 km/h  0%  --  16.1km  93%  Mostly Cloudy 
 23/01/2019 - 01:00  -8.2°C  -13.6°C  1026.8 hPa  63%  11.9 km/h   29.4 km/h  0%  --  16.1km  98%  Overcast 
 23/01/2019 - 02:00  -7.5°C  -12.6°C  1025.5 hPa  63%  11.1 km/h   27.3 km/h  2%  0.01 mm/h  16.1km  99%  Overcast 
 23/01/2019 - 03:00  -7.8°C  -12.5°C  1024.1 hPa  67%  9.7 km/h   23.2 km/h  3%  0.03 mm/h  16.1km  100%  Overcast 
 23/01/2019 - 04:00  -7.4°C  -12.0°C  1022.8 hPa  68%  9.4 km/h   21.6 km/h  4%  0.06 mm/h  15.8km  100%  Overcast 
 23/01/2019 - 05:00  -6.3°C  -11.2°C  1021.5 hPa  67%  11.2 km/h   25.5 km/h  6%  0.11 mm/h  11.8km  100%  Overcast 
 23/01/2019 - 06:00  -5.8°C  -11.4°C  1020.2 hPa  70%  14.2 km/h   32.1 km/h  11%  0.22 mm/h  7.4km  100%  Possible Light Snow 
 23/01/2019 - 07:00  -5.3°C  -11.3°C  1018.9 hPa  72%  16.8 km/h   37.7 km/h  15%  0.37 mm/h  4.1km  100%  Snow 
 23/01/2019 - 08:00  -4.7°C  -11.0°C  1017.6 hPa  75%  18.7 km/h   40.6 km/h  20%  0.52 mm/h  3.0km  100%  Snow 
 23/01/2019 - 09:00  -4.4°C  -10.9°C  1016.2 hPa  79%  20.3 km/h   42.2 km/h  30%  0.71 mm/h  2.1km  100%  Snow 
 23/01/2019 - 10:00  -4.0°C  -10.5°C  1014.7 hPa  84%  21.1 km/h   42.4 km/h  37%  0.93 mm/h  1.9km  100%  Snow 
 23/01/2019 - 11:00  -3.4°C  -9.6°C  1013.0 hPa  87%  20.6 km/h   40.3 km/h  41%  1.11 mm/h  2.2km  100%  Snow 
 23/01/2019 - 12:00  -2.5°C  -8.3°C  1011.2 hPa  89%  19.1 km/h   36.9 km/h  47%  1.27 mm/h  3.1km  100%  Snow 
 23/01/2019 - 13:00  -1.8°C  -7.1°C  1009.5 hPa  92%  18.0 km/h   34.8 km/h  46%  1.36 mm/h  3.6km  100%  Snow 
 23/01/2019 - 14:00  -0.8°C  -5.9°C  1008.2 hPa  93%  17.9 km/h   35.7 km/h  45%  1.37 mm/h  3.4km  100%  Snow 
 23/01/2019 - 15:00  0.3°C  -4.6°C  1007.1 hPa  93%  18.2 km/h   38.2 km/h  46%  1.36 mm/h  2.8km  100%  Snow 
 23/01/2019 - 16:00  0.9°C  -3.8°C  1006.2 hPa  95%  18.4 km/h   40.1 km/h  47%  1.30 mm/h  2.1km  100%  Snow 
 23/01/2019 - 17:00  1.3°C  -3.3°C  1005.9 hPa  96%  18.1 km/h   41.4 km/h  50%  1.08 mm/h  1.4km  100%  Snow 
Test

 

Past weather and reports

Past weatherFind in this section the past weather conditions, weather archive, graphics, reports and statistics.

Current conditions

Current weather condition for MontrealAll you need to know about the current weather conditions for Montreal. Weather data is updated every 10 minutes.

Weather forecast

Current Montreal weatherSince 2004, celinium.com website has provided accurate weather forecast for Montreal's island.